Flight Track Log - Related Links

Times and Time Zones

All times are in EDT time to prevent confusion due to time zone crossing. See the N550VW flight status page for this flight to view local times or setup timezone preferences in your user account.

Time Position Orientation Groundspeed Altitude Reporting Facility
EDT Latitude Longitude Course Direction KTS MPH feet Rate Location/Type
Fri 11:29:06 PM 33.6833 -112.0500 40° Northeast 168 193 2,300  Level Phoenix TRACON
Fri 11:30:06 PM 33.7167 -112.0167 40° Northeast 215 247 4,300 1,831 Climbing Phoenix TRACON
Fri 11:31:04 PM 33.7722 -112.0219 355° North 235 270 5,900 1,966 Climbing Albuquerque Center
Fri 11:32:05 PM 33.8064 -111.9611 56° Northeast 229 264 8,200 1,918 Climbing Albuquerque Center
Fri 11:33:06 PM 33.8525 -111.9089 43° Northeast 230 265 9,800 885 Climbing Albuquerque Center
Fri 11:34:07 PM 33.9297 -111.8564 29° Northeast 289 333 10,000 537 Climbing Albuquerque Center
Fri 11:35:09 PM 33.9875 -111.7989 40° Northeast 276 318 10,900 878 Climbing Albuquerque Center
Fri 11:36:10 PM 34.0425 -111.7539 34° Northeast 269 310 11,800 787 Climbing Albuquerque Center
Fri 11:37:11 PM 34.1081 -111.7106 29° Northeast 268 308 12,500 1,180 Climbing Albuquerque Center
Fri 11:38:12 PM 34.1950 -111.6881 12° North 267 307 14,200 1,951 Climbing Albuquerque Center
Fri 11:39:14 PM 34.2550 -111.6508 27° Northeast 249 287 16,500 2,000 Climbing Albuquerque Center
Fri 11:40:15 PM 34.3161 -111.6417 North 238 274 18,300 1,230 Climbing Albuquerque Center
Fri 11:41:16 PM 34.3847 -111.6444 358° North 244 281 19,000 344 Climbing Albuquerque Center
Fri 11:42:17 PM 34.4650 -111.6478 358° North 280 322 19,000 295 Level Albuquerque Center
Fri 11:43:18 PM 34.5511 -111.6519 358° North 304 350 19,600 1,463 Climbing Albuquerque Center
Fri 11:44:20 PM 34.6292 -111.6556 358° North 292 336 22,000 1,659 Climbing Albuquerque Center
Fri 11:45:21 PM 34.6983 -111.6600 357° North 253 291 23,000 590 Climbing Albuquerque Center
Fri 11:46:22 PM 34.7714 -111.6922 340° North 278 320 23,200 934 Climbing Albuquerque Center
Fri 11:47:23 PM 34.8597 -111.7256 343° North 285 328 24,900 1,426 Climbing Albuquerque Center
Fri 11:48:24 PM 34.9272 -111.7519 342° North 267 307 26,100 1,122 Climbing Albuquerque Center
Fri 11:49:26 PM 34.9953 -111.7781 343° North 260 299 27,200 1,024 Climbing Albuquerque Center
Fri 11:50:27 PM 35.0647 -111.8050 342° North 262 302 28,200 934 Climbing Albuquerque Center
Fri 11:51:28 PM 35.1353 -111.8311 343° North 265 305 29,100 934 Climbing Albuquerque Center
Fri 11:52:29 PM 35.2064 -111.8583 343° North 268 308 30,100 836 Climbing Albuquerque Center
Fri 11:53:30 PM 35.2783 -111.8853 343° North 271 312 30,800 836 Climbing Albuquerque Center
Fri 11:54:31 PM 35.3664 -111.9181 343° North 276 318 31,800 878 Climbing Albuquerque Center
Fri 11:55:33 PM 35.4411 -111.9464 343° North 280 322 32,600 878 Climbing Albuquerque Center
Fri 11:56:34 PM 35.5142 -111.9753 342° North 280 322 33,600 836 Climbing Albuquerque Center
Fri 11:57:35 PM 35.5842 -112.0022 343° North 271 312 34,300 541 Climbing Albuquerque Center
Fri 11:58:36 PM 35.6572 -112.0297 343° North 273 314 34,700 414 Climbing Albuquerque Center
Fri 11:59:02 PM 35.6878 -112.0403 344° North 277 319 34,900 207 Climbing Los Angeles Center
Sat 12:00:03 AM 35.7639 -112.0703 342° North 286 329 35,000 49 Climbing Los Angeles Center
Sat 12:01:04 AM 35.8442 -112.1014 343° North 300 345 35,000  Level Los Angeles Center
Sat 12:02:06 AM 35.9433 -112.1392 343° North 312 359 35,000  Level Los Angeles Center
Sat 12:03:08 AM 36.0339 -112.1542 352° North 333 383 35,000  Level Los Angeles Center
Sat 12:04:09 AM 36.1258 -112.1603 357° North 334 384 35,000  Level Los Angeles Center
Sat 12:05:11 AM 36.2294 -112.1706 355° North 342 394 35,000  Level Los Angeles Center
Sat 12:06:12 AM 36.3244 -112.1781 356° North 342 394 35,000  Level Los Angeles Center
Sat 12:07:14 AM 36.4194 -112.1878 355° North 344 396 35,000  Level Los Angeles Center
Sat 12:08:15 AM 36.5161 -112.1944 357° North 346 398 35,000 -146 Level Los Angeles Center
Sat 12:09:17 AM 36.6117 -112.2039 355° North 346 398 34,700 -387 Descending Los Angeles Center
Sat 12:10:19 AM 36.7297 -112.2147 356° North 354 407 34,200 -341 Descending Los Angeles Center
Sat 12:11:20 AM 36.8289 -112.2233 356° North 358 412 34,000 -98 Descending Los Angeles Center
Sat 12:12:22 AM 36.9275 -112.2328 356° North 356 410 34,000 49 Level Los Angeles Center
Sat 12:13:23 AM 37.0242 -112.2417 356° North 351 404 34,100 49 Climbing Los Angeles Center
Sat 12:14:24 AM 37.1022 -112.2481 356° North 351 404 34,100  Level Los Angeles Center
Sat 12:15:38 AM 37.2189 -112.2586 356° North 353 406 34,100  Level Los Angeles Center
Sat 12:16:40 AM 37.3339 -112.2706 355° North 349 402 34,100  Level Los Angeles Center
Sat 12:17:41 AM 37.4292 -112.2792 356° North 346 398 34,100  Level Los Angeles Center
Sat 12:18:42 AM 37.5444 -112.2897 356° North 347 399 34,100 -46 Level Los Angeles Center
Sat 12:19:51 AM 37.6406 -112.2994 355° North 349 402 34,000  Descending Salt Lake Center
Sat 12:20:52 AM 37.7586 -112.2956 North 356 410 34,100  Climbing Salt Lake Center
Sat 12:21:53 AM 37.8578 -112.2808 North 361 415 34,000  Descending Salt Lake Center
Sat 12:22:54 AM 37.9564 -112.2681 North 359 413 34,100  Climbing Salt Lake Center
Sat 12:23:55 AM 38.0536 -112.2553 North 353 406 34,000 -49 Descending Salt Lake Center
Sat 12:24:56 AM 38.1503 -112.2419 North 351 404 34,000  Level Salt Lake Center
Sat 12:25:58 AM 38.2472 -112.2283 North 351 404 34,000  Level Salt Lake Center
Sat 12:26:59 AM 38.3450 -112.2139 North 354 407 34,000 49 Level Salt Lake Center
Sat 12:28:00 AM 38.4433 -112.2003 North 355 409 34,100  Climbing Salt Lake Center
Sat 12:29:01 AM 38.5428 -112.1853 North 357 411 34,000 -49 Descending Salt Lake Center
Sat 12:30:02 AM 38.6422 -112.1728 North 359 413 34,000 49 Level Salt Lake Center
Sat 12:31:03 AM 38.7628 -112.1547 North 362 417 34,100  Climbing Salt Lake Center
Sat 12:32:04 AM 38.8622 -112.1411 North 361 415 34,000 -639 Descending Salt Lake Center
Sat 12:33:05 AM 38.9658 -112.1272 North 370 426 32,800 -934 Descending Salt Lake Center
Sat 12:34:06 AM 39.0731 -112.1108 North 386 444 32,100 -1,230 Descending Salt Lake Center
Sat 12:35:07 AM 39.1767 -112.0972 North 376 433 30,300 -2,508 Descending Salt Lake Center
Sat 12:36:08 AM 39.2822 -112.0819 North 368 423 27,000 -2,902 Descending Salt Lake Center
Sat 12:37:09 AM 39.3822 -112.0686 North 362 417 24,400 -2,459 Descending Salt Lake Center
Sat 12:38:10 AM 39.4778 -112.0556 North 352 405 22,000 -2,361 Descending Salt Lake Center
Sat 12:39:11 AM 39.5708 -112.0411 North 342 394 19,600 -2,213 Descending Salt Lake Center
Sat 12:40:12 AM 39.6636 -112.0311 North 338 389 17,500 -1,805 Descending Salt Lake Center
Sat 12:41:14 AM 39.7522 -112.0183 North 331 381 15,900 -1,171 Descending Salt Lake Center
Sat 12:42:15 AM 39.8294 -112.0050 North 293 337 15,100 -410 Descending Salt Lake Center
Sat 12:43:11 AM 39.9111 -112.0031 North 282 325 15,100 -65 Level Salt Lake Center
Sat 12:43:47 AM 39.9572 -111.9961 North 284 327 15,000 -545 Descending Salt Lake Center
Sat 12:44:17 AM 40.0003 -111.9803 16° North 283 326 14,500 -1,400 Descending Salt Lake Center
Sat 12:44:47 AM 40.0344 -111.9842 355° North 279 321 13,600 -2,164 Descending Salt Lake Center
Sat 12:45:18 AM 40.0761 -111.9700 15° North 275 316 12,300 -2,400 Descending Salt Lake Center
Sat 12:45:42 AM 40.1036 -111.9747 353° North 273 314 11,400 -2,066 Descending Salt Lake Center
Sat 12:46:19 AM 40.1497 -111.9597 14° North 269 310 10,200 -1,869 Descending Salt Lake Center
Sat 12:46:43 AM 40.1794 -111.9661 351° North 263 303 9,500 -1,082 Descending Salt Lake Center
Sat 12:47:20 AM 40.2222 -111.9586 North 263 303 9,100 -500 Descending Salt Lake Center
Sat 12:47:43 AM 40.2528 -111.9667 349° North 261 300 9,000  Descending Salt Lake Center
Sat 12:48:21 AM 40.2939 -111.9589 North 259 298 9,100 109 Climbing Salt Lake Center
Sat 12:48:38 AM 40.3125 -111.9633 350° North 249 287 9,100  Level Salt Lake Center
Sat 12:49:22 AM 40.3547 -111.9603 North 218 251 9,100  Level Salt Lake Center
Sat 12:49:44 AM 40.3797 -111.9658 350° North 216 249 9,100  Level Salt Lake Center
Sat 12:50:23 AM 40.4156 -111.9600 North 220 253 9,100  Level Salt Lake Center
Sat 12:50:39 AM 40.4358 -111.9667 346° North 225 259 9,100  Level Salt Lake Center
Sat 12:51:24 AM 40.4789 -111.9606 North 227 261 9,100  Level Salt Lake Center
Sat 12:51:40 AM 40.5000 -111.9647 351° North 220 253 9,100 -197 Level Salt Lake Center
Sat 12:52:25 AM 40.5328 -111.9611 North 194 223 8,900 -500 Descending Salt Lake Center
Sat 12:52:40 AM 40.5475 -111.9656 347° North 172 198 8,600 -885 Descending Salt Lake Center
Sat 12:53:26 AM 40.5778 -111.9611 North 166 191 8,000 -785 Descending Salt Lake Center
Sat 12:54:27 AM 40.6222 -111.9611 360° North 160 184 7,200 -787 Descending Salt Lake Center
Sat 12:55:28 AM 40.6619 -111.9622 359° North 146 168 6,400 -744 Descending Salt Lake Center
Sat 12:56:28 AM 40.6997 -111.9619 360° North 117 135 5,700 -651 Descending Salt Lake Center
Sat 12:57:37 AM 40.7347 -111.9642 357° North 119 137 5,000 -639 Descending Salt Lake Center
Sat 12:58:30 AM 40.7650 -111.9622 North 115 132 4,400 -679 Descending Salt Lake Center
Sat 01:00:00 AM 40.7833 -111.9667 North  Level FlightAware Approximate
Sat 01:07:00 AM 40.7884 -111.9778 North  Level Estimated

Login

Don't have an account? Register now (free) for customized features, flight alerts, and more!